sensor_id;sensor_type;location;lat;lon;timestamp;P1;durP1;ratioP1;P2;durP2;ratioP2
72037;SDS011;59900;50.788;12.904;2024-02-26T00:01:08;24.30;;;9.20;;
72037;SDS011;59900;50.788;12.904;2024-02-26T00:03:33;20.60;;;9.80;;
72037;SDS011;59900;50.788;12.904;2024-02-26T00:06:00;20.02;;;10.43;;
72037;SDS011;59900;50.788;12.904;2024-02-26T00:08:26;19.17;;;9.60;;
72037;SDS011;59900;50.788;12.904;2024-02-26T00:10:52;21.17;;;9.70;;
72037;SDS011;59900;50.788;12.904;2024-02-26T00:13:17;17.97;;;8.97;;
72037;SDS011;59900;50.788;12.904;2024-02-26T00:15:42;20.03;;;9.20;;
72037;SDS011;59900;50.788;12.904;2024-02-26T00:18:07;18.93;;;9.23;;
72037;SDS011;59900;50.788;12.904;2024-02-26T00:20:33;19.70;;;9.27;;
72037;SDS011;59900;50.788;12.904;2024-02-26T00:22:58;18.97;;;9.50;;
72037;SDS011;59900;50.788;12.904;2024-02-26T00:25:23;21.40;;;9.93;;
72037;SDS011;59900;50.788;12.904;2024-02-26T00:27:48;21.80;;;9.27;;
72037;SDS011;59900;50.788;12.904;2024-02-26T00:30:14;21.53;;;9.90;;
72037;SDS011;59900;50.788;12.904;2024-02-26T00:32:39;19.13;;;9.60;;
72037;SDS011;59900;50.788;12.904;2024-02-26T00:35:04;20.57;;;10.40;;
72037;SDS011;59900;50.788;12.904;2024-02-26T00:37:30;20.45;;;10.63;;
72037;SDS011;59900;50.788;12.904;2024-02-26T00:39:55;21.37;;;10.40;;
72037;SDS011;59900;50.788;12.904;2024-02-26T00:42:21;23.13;;;10.70;;
72037;SDS011;59900;50.788;12.904;2024-02-26T00:44:46;22.20;;;9.83;;
72037;SDS011;59900;50.788;12.904;2024-02-26T00:47:11;23.73;;;10.67;;
72037;SDS011;59900;50.788;12.904;2024-02-26T00:49:37;23.05;;;11.00;;
72037;SDS011;59900;50.788;12.904;2024-02-26T00:52:02;22.10;;;10.70;;
72037;SDS011;59900;50.788;12.904;2024-02-26T00:54:27;20.43;;;9.30;;
72037;SDS011;59900;50.788;12.904;2024-02-26T00:56:53;20.50;;;9.97;;
72037;SDS011;59900;50.788;12.904;2024-02-26T00:59:18;20.93;;;10.93;;
72037;SDS011;59900;50.788;12.904;2024-02-26T01:01:43;22.63;;;9.77;;
72037;SDS011;59900;50.788;12.904;2024-02-26T01:04:09;23.00;;;10.43;;
72037;SDS011;59900;50.788;12.904;2024-02-26T01:06:34;21.50;;;10.30;;
72037;SDS011;59900;50.788;12.904;2024-02-26T01:08:59;23.47;;;9.73;;
72037;SDS011;59900;50.788;12.904;2024-02-26T01:11:24;21.03;;;10.13;;
72037;SDS011;59900;50.788;12.904;2024-02-26T01:13:49;22.37;;;9.97;;
72037;SDS011;59900;50.788;12.904;2024-02-26T01:16:18;22.63;;;9.82;;
72037;SDS011;59900;50.788;12.904;2024-02-26T01:18:43;21.93;;;9.70;;
72037;SDS011;59900;50.788;12.904;2024-02-26T01:21:09;20.63;;;9.47;;
72037;SDS011;59900;50.788;12.904;2024-02-26T01:23:34;17.30;;;8.97;;
72037;SDS011;59900;50.788;12.904;2024-02-26T01:26:00;23.13;;;10.07;;
72037;SDS011;59900;50.788;12.904;2024-02-26T01:28:29;21.50;;;8.75;;
72037;SDS011;59900;50.788;12.904;2024-02-26T01:30:54;21.03;;;9.27;;
72037;SDS011;59900;50.788;12.904;2024-02-26T01:33:20;21.43;;;9.37;;
72037;SDS011;59900;50.788;12.904;2024-02-26T01:35:45;19.63;;;8.87;;
72037;SDS011;59900;50.788;12.904;2024-02-26T01:38:11;20.38;;;9.23;;
72037;SDS011;59900;50.788;12.904;2024-02-26T01:40:36;18.67;;;9.30;;
72037;SDS011;59900;50.788;12.904;2024-02-26T01:43:02;19.27;;;9.63;;
72037;SDS011;59900;50.788;12.904;2024-02-26T01:45:27;17.57;;;8.93;;
72037;SDS011;59900;50.788;12.904;2024-02-26T01:47:53;17.50;;;8.82;;
72037;SDS011;59900;50.788;12.904;2024-02-26T01:50:19;18.60;;;8.77;;
72037;SDS011;59900;50.788;12.904;2024-02-26T01:52:49;22.20;;;8.67;;
72037;SDS011;59900;50.788;12.904;2024-02-26T01:55:15;17.98;;;8.43;;
72037;SDS011;59900;50.788;12.904;2024-02-26T01:57:42;18.50;;;8.50;;
72037;SDS011;59900;50.788;12.904;2024-02-26T02:00:09;15.68;;;7.63;;
72037;SDS011;59900;50.788;12.904;2024-02-26T02:02:36;17.23;;;7.77;;
72037;SDS011;59900;50.788;12.904;2024-02-26T02:05:03;15.73;;;7.40;;
72037;SDS011;59900;50.788;12.904;2024-02-26T02:07:30;16.38;;;7.30;;
72037;SDS011;59900;50.788;12.904;2024-02-26T02:09:56;16.03;;;7.13;;
72037;SDS011;59900;50.788;12.904;2024-02-26T02:12:21;17.77;;;7.68;;
72037;SDS011;59900;50.788;12.904;2024-02-26T02:14:46;15.63;;;7.37;;
72037;SDS011;59900;50.788;12.904;2024-02-26T02:17:11;16.90;;;8.30;;
72037;SDS011;59900;50.788;12.904;2024-02-26T02:19:37;16.53;;;7.20;;
72037;SDS011;59900;50.788;12.904;2024-02-26T02:22:02;16.80;;;7.80;;
72037;SDS011;59900;50.788;12.904;2024-02-26T02:24:27;15.50;;;6.83;;
72037;SDS011;59900;50.788;12.904;2024-02-26T02:26:53;16.40;;;7.50;;
72037;SDS011;59900;50.788;12.904;2024-02-26T02:29:18;14.70;;;7.13;;
72037;SDS011;59900;50.788;12.904;2024-02-26T02:31:43;16.43;;;7.13;;
72037;SDS011;59900;50.788;12.904;2024-02-26T02:34:09;15.70;;;7.40;;
72037;SDS011;59900;50.788;12.904;2024-02-26T02:36:34;13.50;;;6.80;;
72037;SDS011;59900;50.788;12.904;2024-02-26T02:39:00;13.13;;;6.70;;
72037;SDS011;59900;50.788;12.904;2024-02-26T02:41:25;14.73;;;7.33;;
72037;SDS011;59900;50.788;12.904;2024-02-26T02:43:52;14.50;;;7.18;;
72037;SDS011;59900;50.788;12.904;2024-02-26T02:46:17;15.70;;;7.47;;
72037;SDS011;59900;50.788;12.904;2024-02-26T02:48:43;15.57;;;6.40;;
72037;SDS011;59900;50.788;12.904;2024-02-26T02:51:08;13.30;;;6.40;;
72037;SDS011;59900;50.788;12.904;2024-02-26T02:53:34;13.13;;;5.53;;
72037;SDS011;59900;50.788;12.904;2024-02-26T02:55:59;12.90;;;6.30;;
72037;SDS011;59900;50.788;12.904;2024-02-26T02:58:24;14.00;;;6.70;;
72037;SDS011;59900;50.788;12.904;2024-02-26T03:00:49;13.93;;;6.37;;
72037;SDS011;59900;50.788;12.904;2024-02-26T03:03:15;14.07;;;6.37;;
72037;SDS011;59900;50.788;12.904;2024-02-26T03:05:40;14.23;;;7.23;;
72037;SDS011;59900;50.788;12.904;2024-02-26T03:08:05;16.50;;;6.37;;
72037;SDS011;59900;50.788;12.904;2024-02-26T03:10:30;14.13;;;7.27;;
72037;SDS011;59900;50.788;12.904;2024-02-26T03:12:56;13.77;;;6.57;;
72037;SDS011;59900;50.788;12.904;2024-02-26T03:15:21;15.03;;;6.97;;
72037;SDS011;59900;50.788;12.904;2024-02-26T03:17:47;14.13;;;7.07;;
72037;SDS011;59900;50.788;12.904;2024-02-26T03:20:12;14.77;;;7.10;;
72037;SDS011;59900;50.788;12.904;2024-02-26T03:22:38;16.97;;;7.33;;
72037;SDS011;59900;50.788;12.904;2024-02-26T03:25:04;16.77;;;8.00;;
72037;SDS011;59900;50.788;12.904;2024-02-26T03:27:30;15.13;;;7.00;;
72037;SDS011;59900;50.788;12.904;2024-02-26T03:29:55;16.57;;;8.47;;
72037;SDS011;59900;50.788;12.904;2024-02-26T03:32:21;15.95;;;6.90;;
72037;SDS011;59900;50.788;12.904;2024-02-26T03:34:46;16.63;;;7.37;;
72037;SDS011;59900;50.788;12.904;2024-02-26T03:37:12;16.20;;;7.43;;
72037;SDS011;59900;50.788;12.904;2024-02-26T03:39:37;16.70;;;7.57;;
72037;SDS011;59900;50.788;12.904;2024-02-26T03:42:02;16.53;;;7.50;;
72037;SDS011;59900;50.788;12.904;2024-02-26T03:44:28;18.50;;;8.27;;
72037;SDS011;59900;50.788;12.904;2024-02-26T03:46:53;17.20;;;7.70;;
72037;SDS011;59900;50.788;12.904;2024-02-26T03:49:18;18.80;;;8.10;;
72037;SDS011;59900;50.788;12.904;2024-02-26T03:51:44;18.50;;;7.97;;
72037;SDS011;59900;50.788;12.904;2024-02-26T03:54:09;21.83;;;9.10;;
72037;SDS011;59900;50.788;12.904;2024-02-26T03:56:35;21.03;;;9.80;;
72037;SDS011;59900;50.788;12.904;2024-02-26T03:59:00;19.63;;;8.60;;
72037;SDS011;59900;50.788;12.904;2024-02-26T04:01:27;19.42;;;7.97;;
72037;SDS011;59900;50.788;12.904;2024-02-26T04:03:52;20.07;;;8.70;;
72037;SDS011;59900;50.788;12.904;2024-02-26T04:06:17;16.27;;;7.77;;
72037;SDS011;59900;50.788;12.904;2024-02-26T04:08:45;18.52;;;7.10;;
72037;SDS011;59900;50.788;12.904;2024-02-26T04:11:11;16.57;;;8.47;;
72037;SDS011;59900;50.788;12.904;2024-02-26T04:13:36;15.47;;;7.87;;
72037;SDS011;59900;50.788;12.904;2024-02-26T04:16:05;15.70;;;7.50;;
72037;SDS011;59900;50.788;12.904;2024-02-26T04:18:31;16.30;;;7.53;;
72037;SDS011;59900;50.788;12.904;2024-02-26T04:20:57;20.25;;;7.40;;
72037;SDS011;59900;50.788;12.904;2024-02-26T04:23:22;16.37;;;6.87;;
72037;SDS011;59900;50.788;12.904;2024-02-26T04:25:48;16.17;;;6.90;;
72037;SDS011;59900;50.788;12.904;2024-02-26T04:28:13;14.60;;;6.63;;
72037;SDS011;59900;50.788;12.904;2024-02-26T04:30:38;15.50;;;7.20;;
72037;SDS011;59900;50.788;12.904;2024-02-26T04:33:04;14.40;;;6.70;;
72037;SDS011;59900;50.788;12.904;2024-02-26T04:35:29;14.30;;;6.30;;
72037;SDS011;59900;50.788;12.904;2024-02-26T04:37:54;15.30;;;6.30;;
72037;SDS011;59900;50.788;12.904;2024-02-26T04:40:20;11.45;;;5.80;;
72037;SDS011;59900;50.788;12.904;2024-02-26T04:42:46;13.60;;;6.40;;
72037;SDS011;59900;50.788;12.904;2024-02-26T04:45:11;12.47;;;5.83;;
72037;SDS011;59900;50.788;12.904;2024-02-26T04:47:36;13.07;;;5.83;;
72037;SDS011;59900;50.788;12.904;2024-02-26T04:50:01;14.20;;;6.57;;
72037;SDS011;59900;50.788;12.904;2024-02-26T04:52:27;10.82;;;6.03;;
72037;SDS011;59900;50.788;12.904;2024-02-26T04:54:52;13.00;;;6.20;;
72037;SDS011;59900;50.788;12.904;2024-02-26T04:57:17;14.80;;;5.70;;
72037;SDS011;59900;50.788;12.904;2024-02-26T04:59:43;14.57;;;6.03;;
72037;SDS011;59900;50.788;12.904;2024-02-26T05:02:10;11.73;;;5.50;;
72037;SDS011;59900;50.788;12.904;2024-02-26T05:04:35;11.63;;;5.13;;
72037;SDS011;59900;50.788;12.904;2024-02-26T05:07:00;10.63;;;4.97;;
72037;SDS011;59900;50.788;12.904;2024-02-26T05:09:25;12.00;;;5.13;;
72037;SDS011;59900;50.788;12.904;2024-02-26T05:11:51;12.57;;;5.10;;
72037;SDS011;59900;50.788;12.904;2024-02-26T05:14:16;12.90;;;5.80;;
72037;SDS011;59900;50.788;12.904;2024-02-26T05:16:41;13.30;;;5.47;;
72037;SDS011;59900;50.788;12.904;2024-02-26T05:19:06;11.50;;;5.30;;
72037;SDS011;59900;50.788;12.904;2024-02-26T05:21:31;10.57;;;5.33;;
72037;SDS011;59900;50.788;12.904;2024-02-26T05:23:57;11.43;;;5.57;;
72037;SDS011;59900;50.788;12.904;2024-02-26T05:26:22;11.23;;;5.23;;
72037;SDS011;59900;50.788;12.904;2024-02-26T05:28:48;9.68;;;4.85;;
72037;SDS011;59900;50.788;12.904;2024-02-26T05:31:14;10.63;;;5.43;;
72037;SDS011;59900;50.788;12.904;2024-02-26T05:33:40;12.33;;;5.10;;
72037;SDS011;59900;50.788;12.904;2024-02-26T05:36:05;10.37;;;5.30;;
72037;SDS011;59900;50.788;12.904;2024-02-26T05:38:31;12.40;;;5.80;;
72037;SDS011;59900;50.788;12.904;2024-02-26T05:40:59;10.70;;;5.15;;
72037;SDS011;59900;50.788;12.904;2024-02-26T05:43:25;14.07;;;5.97;;
72037;SDS011;59900;50.788;12.904;2024-02-26T05:45:51;10.93;;;5.70;;
72037;SDS011;59900;50.788;12.904;2024-02-26T05:48:17;10.88;;;5.75;;
72037;SDS011;59900;50.788;12.904;2024-02-26T05:50:44;11.30;;;5.40;;
72037;SDS011;59900;50.788;12.904;2024-02-26T05:53:09;13.10;;;5.20;;
72037;SDS011;59900;50.788;12.904;2024-02-26T05:55:34;12.37;;;5.70;;
72037;SDS011;59900;50.788;12.904;2024-02-26T05:57:59;11.23;;;5.97;;
72037;SDS011;59900;50.788;12.904;2024-02-26T06:00:25;14.17;;;6.00;;
72037;SDS011;59900;50.788;12.904;2024-02-26T06:02:50;11.00;;;5.90;;
72037;SDS011;59900;50.788;12.904;2024-02-26T06:05:15;12.57;;;5.17;;
72037;SDS011;59900;50.788;12.904;2024-02-26T06:07:40;13.73;;;5.60;;
72037;SDS011;59900;50.788;12.904;2024-02-26T06:10:06;12.03;;;5.63;;
72037;SDS011;59900;50.788;12.904;2024-02-26T06:12:31;12.80;;;5.43;;
72037;SDS011;59900;50.788;12.904;2024-02-26T06:15:00;13.35;;;6.07;;
72037;SDS011;59900;50.788;12.904;2024-02-26T06:17:26;13.00;;;6.15;;
72037;SDS011;59900;50.788;12.904;2024-02-26T06:19:51;12.80;;;6.40;;
72037;SDS011;59900;50.788;12.904;2024-02-26T06:22:16;13.10;;;6.03;;
72037;SDS011;59900;50.788;12.904;2024-02-26T06:24:41;13.73;;;6.57;;
72037;SDS011;59900;50.788;12.904;2024-02-26T06:27:07;12.60;;;6.50;;
72037;SDS011;59900;50.788;12.904;2024-02-26T06:29:33;11.40;;;5.80;;
72037;SDS011;59900;50.788;12.904;2024-02-26T06:31:58;14.00;;;7.00;;
72037;SDS011;59900;50.788;12.904;2024-02-26T06:34:24;14.27;;;6.50;;
72037;SDS011;59900;50.788;12.904;2024-02-26T06:36:49;14.60;;;6.40;;
72037;SDS011;59900;50.788;12.904;2024-02-26T06:39:14;14.17;;;6.80;;
72037;SDS011;59900;50.788;12.904;2024-02-26T06:41:41;13.68;;;6.32;;
72037;SDS011;59900;50.788;12.904;2024-02-26T06:44:06;13.90;;;6.37;;
72037;SDS011;59900;50.788;12.904;2024-02-26T06:46:31;13.73;;;6.43;;
72037;SDS011;59900;50.788;12.904;2024-02-26T06:48:57;12.60;;;6.90;;
72037;SDS011;59900;50.788;12.904;2024-02-26T06:51:22;14.30;;;6.60;;
72037;SDS011;59900;50.788;12.904;2024-02-26T06:53:47;12.57;;;5.87;;
72037;SDS011;59900;50.788;12.904;2024-02-26T06:56:13;13.82;;;6.40;;
72037;SDS011;59900;50.788;12.904;2024-02-26T06:58:39;12.07;;;6.20;;
72037;SDS011;59900;50.788;12.904;2024-02-26T07:01:04;14.10;;;6.07;;
72037;SDS011;59900;50.788;12.904;2024-02-26T07:03:29;17.27;;;6.53;;
72037;SDS011;59900;50.788;12.904;2024-02-26T07:05:55;12.88;;;6.53;;
72037;SDS011;59900;50.788;12.904;2024-02-26T07:08:20;13.73;;;6.63;;
72037;SDS011;59900;50.788;12.904;2024-02-26T07:10:46;16.43;;;6.80;;
72037;SDS011;59900;50.788;12.904;2024-02-26T07:13:11;13.17;;;6.63;;
72037;SDS011;59900;50.788;12.904;2024-02-26T07:15:36;13.57;;;6.67;;
72037;SDS011;59900;50.788;12.904;2024-02-26T07:18:02;13.87;;;6.70;;
72037;SDS011;59900;50.788;12.904;2024-02-26T07:20:28;12.32;;;5.82;;
72037;SDS011;59900;50.788;12.904;2024-02-26T07:22:55;11.98;;;6.55;;
72037;SDS011;59900;50.788;12.904;2024-02-26T07:25:20;13.43;;;6.00;;
72037;SDS011;59900;50.788;12.904;2024-02-26T07:27:46;13.32;;;6.53;;
72037;SDS011;59900;50.788;12.904;2024-02-26T07:30:11;11.10;;;6.23;;
72037;SDS011;59900;50.788;12.904;2024-02-26T07:32:37;11.87;;;6.23;;
72037;SDS011;59900;50.788;12.904;2024-02-26T07:35:02;11.23;;;6.27;;
72037;SDS011;59900;50.788;12.904;2024-02-26T07:37:28;11.63;;;6.00;;
72037;SDS011;59900;50.788;12.904;2024-02-26T07:39:53;12.97;;;6.20;;
72037;SDS011;59900;50.788;12.904;2024-02-26T07:42:19;13.90;;;6.65;;
72037;SDS011;59900;50.788;12.904;2024-02-26T07:44:44;12.53;;;6.07;;
72037;SDS011;59900;50.788;12.904;2024-02-26T07:47:09;13.33;;;6.37;;
72037;SDS011;59900;50.788;12.904;2024-02-26T07:49:35;12.17;;;6.20;;
72037;SDS011;59900;50.788;12.904;2024-02-26T07:52:00;13.17;;;5.90;;
72037;SDS011;59900;50.788;12.904;2024-02-26T07:54:25;13.20;;;5.50;;
72037;SDS011;59900;50.788;12.904;2024-02-26T07:56:51;11.67;;;6.43;;
72037;SDS011;59900;50.788;12.904;2024-02-26T07:59:16;13.40;;;6.20;;
72037;SDS011;59900;50.788;12.904;2024-02-26T08:01:41;10.90;;;5.90;;
72037;SDS011;59900;50.788;12.904;2024-02-26T08:04:07;11.70;;;5.47;;
72037;SDS011;59900;50.788;12.904;2024-02-26T08:06:32;10.40;;;5.23;;
72037;SDS011;59900;50.788;12.904;2024-02-26T08:08:57;13.53;;;6.13;;
72037;SDS011;59900;50.788;12.904;2024-02-26T08:11:22;15.67;;;6.10;;
72037;SDS011;59900;50.788;12.904;2024-02-26T08:13:48;13.77;;;5.93;;
72037;SDS011;59900;50.788;12.904;2024-02-26T08:16:13;14.07;;;6.40;;
72037;SDS011;59900;50.788;12.904;2024-02-26T08:18:38;12.50;;;6.17;;
72037;SDS011;59900;50.788;12.904;2024-02-26T08:21:04;12.87;;;5.43;;
72037;SDS011;59900;50.788;12.904;2024-02-26T08:23:29;12.23;;;6.17;;
72037;SDS011;59900;50.788;12.904;2024-02-26T08:25:56;12.75;;;6.18;;
72037;SDS011;59900;50.788;12.904;2024-02-26T08:28:21;10.27;;;5.53;;
72037;SDS011;59900;50.788;12.904;2024-02-26T08:30:46;13.37;;;6.07;;
72037;SDS011;59900;50.788;12.904;2024-02-26T08:33:11;11.27;;;5.50;;
72037;SDS011;59900;50.788;12.904;2024-02-26T08:35:38;10.18;;;5.38;;
72037;SDS011;59900;50.788;12.904;2024-02-26T08:38:03;12.40;;;5.73;;
72037;SDS011;59900;50.788;12.904;2024-02-26T08:40:29;11.63;;;5.80;;
72037;SDS011;59900;50.788;12.904;2024-02-26T08:42:54;11.37;;;5.87;;
72037;SDS011;59900;50.788;12.904;2024-02-26T08:45:20;10.43;;;5.60;;
72037;SDS011;59900;50.788;12.904;2024-02-26T08:47:45;12.57;;;5.80;;
72037;SDS011;59900;50.788;12.904;2024-02-26T08:50:11;11.25;;;5.72;;
72037;SDS011;59900;50.788;12.904;2024-02-26T08:52:37;12.17;;;5.20;;
72037;SDS011;59900;50.788;12.904;2024-02-26T08:55:02;9.75;;;5.22;;
72037;SDS011;59900;50.788;12.904;2024-02-26T08:57:28;9.90;;;5.70;;
72037;SDS011;59900;50.788;12.904;2024-02-26T08:59:53;10.30;;;5.67;;
72037;SDS011;59900;50.788;12.904;2024-02-26T09:02:18;11.27;;;6.20;;
72037;SDS011;59900;50.788;12.904;2024-02-26T09:04:44;10.93;;;5.18;;
72037;SDS011;59900;50.788;12.904;2024-02-26T09:07:10;11.40;;;5.13;;
72037;SDS011;59900;50.788;12.904;2024-02-26T09:09:35;12.63;;;5.20;;
72037;SDS011;59900;50.788;12.904;2024-02-26T09:12:01;9.82;;;5.47;;
72037;SDS011;59900;50.788;12.904;2024-02-26T09:14:26;12.07;;;4.83;;
72037;SDS011;59900;50.788;12.904;2024-02-26T09:16:52;9.87;;;5.50;;
72037;SDS011;59900;50.788;12.904;2024-02-26T09:19:17;8.70;;;5.28;;
72037;SDS011;59900;50.788;12.904;2024-02-26T09:21:45;10.63;;;5.90;;
72037;SDS011;59900;50.788;12.904;2024-02-26T09:24:11;10.02;;;4.90;;
72037;SDS011;59900;50.788;12.904;2024-02-26T09:26:37;12.10;;;5.30;;
72037;SDS011;59900;50.788;12.904;2024-02-26T09:29:03;9.90;;;5.40;;
72037;SDS011;59900;50.788;12.904;2024-02-26T09:31:29;8.98;;;4.72;;
72037;SDS011;59900;50.788;12.904;2024-02-26T09:33:54;10.13;;;5.37;;
72037;SDS011;59900;50.788;12.904;2024-02-26T09:36:19;10.33;;;5.17;;
72037;SDS011;59900;50.788;12.904;2024-02-26T09:38:45;11.17;;;5.60;;
72037;SDS011;59900;50.788;12.904;2024-02-26T09:41:13;10.00;;;5.10;;
72037;SDS011;59900;50.788;12.904;2024-02-26T09:43:39;11.93;;;4.80;;
72037;SDS011;59900;50.788;12.904;2024-02-26T09:46:08;9.45;;;4.97;;
72037;SDS011;59900;50.788;12.904;2024-02-26T09:48:34;8.70;;;4.80;;
72037;SDS011;59900;50.788;12.904;2024-02-26T09:51:01;9.40;;;5.40;;
72037;SDS011;59900;50.788;12.904;2024-02-26T09:53:28;10.40;;;5.20;;
72037;SDS011;59900;50.788;12.904;2024-02-26T09:55:56;9.57;;;5.32;;
72037;SDS011;59900;50.788;12.904;2024-02-26T09:58:22;9.73;;;5.00;;
72037;SDS011;59900;50.788;12.904;2024-02-26T10:00:50;9.77;;;5.00;;
72037;SDS011;59900;50.788;12.904;2024-02-26T10:03:18;8.77;;;4.93;;
72037;SDS011;59900;50.788;12.904;2024-02-26T10:05:47;10.17;;;4.93;;
72037;SDS011;59900;50.788;12.904;2024-02-26T10:08:14;10.07;;;4.60;;
72037;SDS011;59900;50.788;12.904;2024-02-26T10:10:40;10.05;;;5.05;;
72037;SDS011;59900;50.788;12.904;2024-02-26T10:13:06;10.90;;;5.57;;
72037;SDS011;59900;50.788;12.904;2024-02-26T10:15:35;9.17;;;5.43;;
72037;SDS011;59900;50.788;12.904;2024-02-26T10:18:03;10.05;;;5.70;;
72037;SDS011;59900;50.788;12.904;2024-02-26T10:20:29;9.38;;;5.38;;
72037;SDS011;59900;50.788;12.904;2024-02-26T10:22:56;10.73;;;5.13;;
72037;SDS011;59900;50.788;12.904;2024-02-26T10:25:22;12.63;;;6.00;;
72037;SDS011;59900;50.788;12.904;2024-02-26T10:27:47;8.40;;;4.40;;
72037;SDS011;59900;50.788;12.904;2024-02-26T10:30:16;10.30;;;5.07;;
72037;SDS011;59900;50.788;12.904;2024-02-26T10:32:50;12.65;;;5.13;;
72037;SDS011;59900;50.788;12.904;2024-02-26T10:35:16;14.03;;;5.60;;
72037;SDS011;59900;50.788;12.904;2024-02-26T10:37:43;11.63;;;4.68;;
72037;SDS011;59900;50.788;12.904;2024-02-26T10:40:11;8.53;;;4.60;;
72037;SDS011;59900;50.788;12.904;2024-02-26T10:42:37;9.80;;;5.35;;
72037;SDS011;59900;50.788;12.904;2024-02-26T10:45:06;10.00;;;5.25;;
72037;SDS011;59900;50.788;12.904;2024-02-26T10:47:34;11.15;;;5.03;;
72037;SDS011;59900;50.788;12.904;2024-02-26T10:50:02;9.57;;;4.72;;
72037;SDS011;59900;50.788;12.904;2024-02-26T10:52:31;11.23;;;5.00;;
72037;SDS011;59900;50.788;12.904;2024-02-26T10:55:01;10.27;;;5.30;;
72037;SDS011;59900;50.788;12.904;2024-02-26T10:57:32;10.88;;;5.15;;
72037;SDS011;59900;50.788;12.904;2024-02-26T11:00:03;9.13;;;5.10;;
72037;SDS011;59900;50.788;12.904;2024-02-26T11:02:31;10.13;;;5.07;;
72037;SDS011;59900;50.788;12.904;2024-02-26T11:04:58;9.07;;;4.60;;
72037;SDS011;59900;50.788;12.904;2024-02-26T11:07:24;10.95;;;5.53;;
72037;SDS011;59900;50.788;12.904;2024-02-26T11:09:50;9.60;;;5.40;;
72037;SDS011;59900;50.788;12.904;2024-02-26T11:12:17;8.90;;;4.82;;
72037;SDS011;59900;50.788;12.904;2024-02-26T11:14:44;10.25;;;5.38;;
72037;SDS011;59900;50.788;12.904;2024-02-26T11:17:11;13.02;;;5.32;;
72037;SDS011;59900;50.788;12.904;2024-02-26T11:19:38;10.38;;;5.50;;
72037;SDS011;59900;50.788;12.904;2024-02-26T11:22:04;9.90;;;5.23;;
72037;SDS011;59900;50.788;12.904;2024-02-26T11:24:30;11.23;;;5.60;;
72037;SDS011;59900;50.788;12.904;2024-02-26T11:26:58;10.30;;;5.63;;
72037;SDS011;59900;50.788;12.904;2024-02-26T11:29:29;10.38;;;5.47;;
72037;SDS011;59900;50.788;12.904;2024-02-26T11:32:05;8.95;;;4.80;;
72037;SDS011;59900;50.788;12.904;2024-02-26T11:34:31;9.47;;;4.83;;
72037;SDS011;59900;50.788;12.904;2024-02-26T11:36:57;9.10;;;5.15;;
72037;SDS011;59900;50.788;12.904;2024-02-26T11:39:22;11.30;;;5.30;;
72037;SDS011;59900;50.788;12.904;2024-02-26T11:41:48;10.10;;;5.45;;
72037;SDS011;59900;50.788;12.904;2024-02-26T11:44:15;9.65;;;4.80;;
72037;SDS011;59900;50.788;12.904;2024-02-26T11:46:53;9.90;;;5.10;;
72037;SDS011;59900;50.788;12.904;2024-02-26T11:51:56;8.80;;;4.77;;
72037;SDS011;59900;50.788;12.904;2024-02-26T11:54:43;8.98;;;4.70;;
72037;SDS011;59900;50.788;12.904;2024-02-26T11:57:46;10.43;;;4.85;;
72037;SDS011;59900;50.788;12.904;2024-02-26T12:00:14;10.02;;;4.78;;
72037;SDS011;59900;50.788;12.904;2024-02-26T12:02:55;10.57;;;4.68;;
72037;SDS011;59900;50.788;12.904;2024-02-26T12:05:25;8.70;;;4.40;;
72037;SDS011;59900;50.788;12.904;2024-02-26T12:07:54;9.00;;;4.68;;
72037;SDS011;59900;50.788;12.904;2024-02-26T12:10:25;9.38;;;4.35;;
72037;SDS011;59900;50.788;12.904;2024-02-26T12:13:00;9.00;;;4.65;;
72037;SDS011;59900;50.788;12.904;2024-02-26T12:15:31;10.45;;;4.90;;
72037;SDS011;59900;50.788;12.904;2024-02-26T12:18:00;10.07;;;4.67;;
72037;SDS011;59900;50.788;12.904;2024-02-26T12:20:27;8.73;;;4.30;;
72037;SDS011;59900;50.788;12.904;2024-02-26T12:22:52;8.67;;;4.53;;
72037;SDS011;59900;50.788;12.904;2024-02-26T12:25:22;8.52;;;4.30;;
72037;SDS011;59900;50.788;12.904;2024-02-26T12:27:50;8.10;;;4.53;;
72037;SDS011;59900;50.788;12.904;2024-02-26T12:30:16;8.70;;;4.70;;
72037;SDS011;59900;50.788;12.904;2024-02-26T12:32:41;9.35;;;4.28;;
72037;SDS011;59900;50.788;12.904;2024-02-26T12:35:07;10.03;;;4.90;;
72037;SDS011;59900;50.788;12.904;2024-02-26T12:37:32;7.80;;;4.27;;
72037;SDS011;59900;50.788;12.904;2024-02-26T12:39:57;10.43;;;4.80;;
72037;SDS011;59900;50.788;12.904;2024-02-26T12:42:23;8.87;;;4.57;;
72037;SDS011;59900;50.788;12.904;2024-02-26T12:44:49;9.80;;;4.70;;
72037;SDS011;59900;50.788;12.904;2024-02-26T12:47:15;10.50;;;4.90;;
72037;SDS011;59900;50.788;12.904;2024-02-26T12:49:42;10.10;;;5.15;;
72037;SDS011;59900;50.788;12.904;2024-02-26T12:52:08;10.63;;;5.25;;
72037;SDS011;59900;50.788;12.904;2024-02-26T12:54:35;9.48;;;4.95;;
72037;SDS011;59900;50.788;12.904;2024-02-26T12:57:03;13.32;;;5.47;;
72037;SDS011;59900;50.788;12.904;2024-02-26T12:59:31;8.57;;;5.40;;
72037;SDS011;59900;50.788;12.904;2024-02-26T13:01:58;11.63;;;5.63;;
72037;SDS011;59900;50.788;12.904;2024-02-26T13:04:23;10.65;;;6.07;;
72037;SDS011;59900;50.788;12.904;2024-02-26T13:06:50;10.10;;;5.30;;
72037;SDS011;59900;50.788;12.904;2024-02-26T13:09:16;10.70;;;5.90;;
72037;SDS011;59900;50.788;12.904;2024-02-26T13:11:43;11.20;;;5.75;;
72037;SDS011;59900;50.788;12.904;2024-02-26T13:14:18;13.38;;;6.72;;
72037;SDS011;59900;50.788;12.904;2024-02-26T13:16:44;13.55;;;5.85;;
72037;SDS011;59900;50.788;12.904;2024-02-26T13:19:09;12.37;;;5.93;;
72037;SDS011;59900;50.788;12.904;2024-02-26T13:21:35;11.43;;;6.03;;
72037;SDS011;59900;50.788;12.904;2024-02-26T13:24:00;11.77;;;6.13;;
72037;SDS011;59900;50.788;12.904;2024-02-26T13:26:25;12.23;;;6.30;;
72037;SDS011;59900;50.788;12.904;2024-02-26T13:29:03;11.27;;;6.20;;
72037;SDS011;59900;50.788;12.904;2024-02-26T13:31:28;12.82;;;6.30;;
72037;SDS011;59900;50.788;12.904;2024-02-26T13:33:54;12.27;;;6.93;;
72037;SDS011;59900;50.788;12.904;2024-02-26T13:36:21;12.73;;;6.72;;
72037;SDS011;59900;50.788;12.904;2024-02-26T13:38:53;11.93;;;6.43;;
72037;SDS011;59900;50.788;12.904;2024-02-26T13:41:19;11.18;;;6.15;;
72037;SDS011;59900;50.788;12.904;2024-02-26T13:43:45;13.77;;;6.93;;
72037;SDS011;59900;50.788;12.904;2024-02-26T13:46:11;11.60;;;6.63;;
72037;SDS011;59900;50.788;12.904;2024-02-26T13:48:37;11.70;;;6.30;;
72037;SDS011;59900;50.788;12.904;2024-02-26T13:51:03;13.17;;;7.30;;
72037;SDS011;59900;50.788;12.904;2024-02-26T13:53:29;14.73;;;6.60;;
72037;SDS011;59900;50.788;12.904;2024-02-26T13:55:54;13.47;;;7.00;;
72037;SDS011;59900;50.788;12.904;2024-02-26T13:58:19;11.87;;;6.47;;
72037;SDS011;59900;50.788;12.904;2024-02-26T14:00:48;12.63;;;6.93;;
72037;SDS011;59900;50.788;12.904;2024-02-26T14:03:14;13.20;;;7.33;;
72037;SDS011;59900;50.788;12.904;2024-02-26T14:05:39;15.37;;;8.03;;
72037;SDS011;59900;50.788;12.904;2024-02-26T14:08:05;14.80;;;7.50;;
72037;SDS011;59900;50.788;12.904;2024-02-26T14:10:31;12.50;;;7.35;;
72037;SDS011;59900;50.788;12.904;2024-02-26T14:12:56;13.93;;;7.13;;
72037;SDS011;59900;50.788;12.904;2024-02-26T14:15:22;14.67;;;7.60;;
72037;SDS011;59900;50.788;12.904;2024-02-26T14:17:49;14.48;;;7.35;;
72037;SDS011;59900;50.788;12.904;2024-02-26T14:20:19;14.95;;;7.65;;